Spokane, WA

7:02 AM PST on January 31, 2015 (GMT -0800)
Hayford | Change Station
CLOSE
Current Station
Personal Weather Station
Location: Cheney, WA
Elevation: 2441 ft
Nearby Weather Stations

Elev 2441 ft 47.58 °N, 117.54 °W | Updated 14 minutes ago

Overcast
Overcast
28.4 °F
Feels Like 28 °F
N
0.0
Wind Variable Wind from ESE

Today
High -- | Low -- °F
--% Chance of Precip.
Yesterday
High -- | Low -- °F
Precip. -- in
7:18 AM 4:49 PM
Waxing Gibbous, 90% visible
Pressure 30.33 in
Visibility 10.0 miles
Clouds Overcast 1000 ft
Windchill 28 °F
Dew Point 28 °F
Humidity 99%
Rainfall 0.00 in
Snow Depth Not available.
UV 0 out of 12
Pollen .40 out of 12
Air Quality Not available.
Flu Activity Not available.
METAR KSKA 311458Z AUTO 24003KT 10SM UP OVC010 M02/M02 A3024 RMK AO2 UPB03E14UPB38 SLP271 P0000 60000 T10161017 53005

More Conditions Fewer Conditions

Pressure 30.33 in
Visibility 10.0 miles
Clouds Overcast 1000 ft
Windchill 28 °F
Dew Point 28 °F
Humidity 99%
Rainfall 0.00 in
Snow Depth Not available.
UV 0 out of 12
Pollen .40 out of 12
Air Quality Not available.
Flu Activity Not available.
METAR KSKA 311458Z AUTO 24003KT 10SM UP OVC010 M02/M02 A3024 RMK AO2 UPB03E14UPB38 SLP271 P0000 60000 T10161017 53005

More Conditions Fewer Conditions

10-Day Weather Forecast

Almanac

Astronomy

Jan. 31, 2015 Rise Set
Actual Time
Civil Twilight
Nautical Twilight
Astronomical Twilight
Moon
Length of Visible Light
Length of Day
Tomorrow will be .
, % of the Moon is Illuminated

Today's Extremes

State Highs State Lows

Community

WunderPhotos

Upload Photos

1,792,080 photos uploaded!

WunderBlogs® & News

Nearby

Air Quality

  Air Quality AQ Index Pollutant
Not available.

Snow Depth

Station Depth Elevation

Earthquake Activity

City Distance Mag. Time & Date
Minimum magnitude displayed is 2.5.

Coastal Water Temperatures

Place Temperature

Nearby Weather Stations